Bandana, Kentucky
Current Conditions -  °F | °C
As of 9:35 PM on Monday 20 Oct 2014 (Local Time) from KM30 Reporting Station
Scattered Clouds Scattered Clouds  
Wind Chill: 14°   Ceiling: Unl
Heat Index: 14°   Visibility: 10mi
Dew Point: 14°   Wind: 0mph
Humidity: 100%   Direction: NA
Pressure: 30"   Gusts: NA
Location:  37.15°N, 88.95°W
Report Text: KM30 210235Z AUTO 00000KT 10SM SCT070 14/14 A3000 RMK AO2 T01350135
Loading
Personal Weather Stations






























Interactive Weather Map
Tropical Storm Tracking
New forecast layout! Learn more

10-Day Weather Forecast

Advertisements
Track Severe Weather on mobile